Time;durP1;ratioP1;P1;durP2;ratioP2;P2;SDS_P1;SDS_P2;PMS_P1;PMS_P2;Temp;Humidity;BMP_temperature;BMP_pressure;BME280_temperature;BME280_humidity;BME280_pressure;Samples;Min_cycle;Max_cycle;Signal;HPM_P1;HPM_P2
2023/01/16 00:01:53;;;;;;;;;;;20.90;60.60;;;;;;1564913;75;769;-71
2023/01/16 00:03:55;;;;;;;;;;;21.00;60.70;;;;;;1585267;75;1545;-72
2023/01/16 00:05:57;;;;;;;;;;;20.80;60.60;;;;;;1574268;75;1941;-71
2023/01/16 00:07:59;;;;;;;;;;;20.80;60.80;;;;;;1583630;75;1106;-71
2023/01/16 00:10:01;;;;;;;;;;;20.80;60.80;;;;;;1553236;76;704;-72
2023/01/16 00:12:03;;;;;;;;;;;20.80;60.80;;;;;;1555570;76;721;-72
2023/01/16 00:14:05;;;;;;;;;;;20.80;60.80;;;;;;1556064;75;803;-72
2023/01/16 00:16:07;;;;;;;;;;;20.90;60.90;;;;;;1556220;75;706;-74
2023/01/16 00:18:09;;;;;;;;;;;20.90;60.90;;;;;;1550323;75;1665;-74
2023/01/16 00:20:11;;;;;;;;;;;20.90;60.90;;;;;;1555126;76;693;-74
2023/01/16 00:22:12;;;;;;;;;;;20.90;60.90;;;;;;1559853;75;780;-75
2023/01/16 00:24:14;;;;;;;;;;;20.90;61.10;;;;;;1582717;75;735;-73
2023/01/16 00:26:16;;;;;;;;;;;20.80;61.20;;;;;;1583981;75;1950;-73
2023/01/16 00:28:18;;;;;;;;;;;20.80;61.30;;;;;;1583933;75;1112;-73
2023/01/16 00:30:20;;;;;;;;;;;20.80;61.20;;;;;;1583588;75;940;-72
2023/01/16 00:32:22;;;;;;;;;;;20.90;61.30;;;;;;1583521;75;819;-73
2023/01/16 00:34:24;;;;;;;;;;;20.90;61.30;;;;;;1584845;75;720;-73
2023/01/16 00:36:25;;;;;;;;;;;20.80;61.20;;;;;;1584922;75;669;-74
2023/01/16 00:38:27;;;;;;;;;;;20.90;61.30;;;;;;1576894;75;1121;-74
2023/01/16 00:40:29;;;;;;;;;;;20.90;61.30;;;;;;1584603;75;746;-71
2023/01/16 00:42:31;;;;;;;;;;;20.90;61.30;;;;;;1581182;75;906;-73
2023/01/16 00:44:33;;;;;;;;;;;20.80;61.10;;;;;;1579250;75;740;-73
2023/01/16 00:46:35;;;;;;;;;;;20.90;61.20;;;;;;1577151;75;1922;-74
2023/01/16 00:48:37;;;;;;;;;;;20.80;61.20;;;;;;1576950;75;1178;-72
2023/01/16 00:50:39;;;;;;;;;;;20.80;61.10;;;;;;1584007;75;686;-72
2023/01/16 00:52:40;;;;;;;;;;;20.80;61.20;;;;;;1582365;75;713;-71
2023/01/16 00:54:42;;;;;;;;;;;20.90;61.40;;;;;;1585007;75;738;-72
2023/01/16 00:56:44;;;;;;;;;;;20.80;61.10;;;;;;1585892;75;722;-73
2023/01/16 00:58:46;;;;;;;;;;;20.80;61.10;;;;;;1573077;75;1140;-72
2023/01/16 01:00:49;;;;;;;;;;;20.90;61.20;;;;;;1581730;75;753;-72
2023/01/16 01:02:51;;;;;;;;;;;20.90;61.10;;;;;;1580167;75;732;-72
2023/01/16 01:04:53;;;;;;;;;;;20.90;61.20;;;;;;1576523;75;733;-72
2023/01/16 01:06:54;;;;;;;;;;;20.90;61.10;;;;;;1552719;75;1932;-72
2023/01/16 01:08:56;;;;;;;;;;;20.90;61.20;;;;;;1551690;75;1104;-73
2023/01/16 01:10:58;;;;;;;;;;;20.90;61.30;;;;;;1584015;75;730;-73
2023/01/16 01:13:00;;;;;;;;;;;20.80;61.20;;;;;;1579257;74;738;-73
2023/01/16 01:15:02;;;;;;;;;;;20.90;61.20;;;;;;1577649;75;771;-73
2023/01/16 01:17:04;;;;;;;;;;;20.90;61.20;;;;;;1579222;75;765;-73
2023/01/16 01:19:06;;;;;;;;;;;20.90;61.20;;;;;;1578887;75;1156;-72
2023/01/16 01:21:08;;;;;;;;;;;20.90;61.10;;;;;;1583398;75;767;-73
2023/01/16 01:23:09;;;;;;;;;;;21.00;61.20;;;;;;1580158;75;698;-73
2023/01/16 01:25:11;;;;;;;;;;;21.00;61.10;;;;;;1554296;75;725;-74
2023/01/16 01:27:13;;;;;;;;;;;21.00;61.00;;;;;;1558280;75;1946;-76
2023/01/16 01:29:15;;;;;;;;;;;21.00;60.90;;;;;;1552746;75;1113;-74
2023/01/16 01:31:17;;;;;;;;;;;21.00;60.80;;;;;;1554762;76;1419;-74
2023/01/16 01:33:19;;;;;;;;;;;21.00;60.80;;;;;;1573478;75;890;-74
2023/01/16 01:35:21;;;;;;;;;;;21.00;60.80;;;;;;1569852;75;703;-74
2023/01/16 01:37:23;;;;;;;;;;;21.00;60.80;;;;;;1570742;75;684;-74
2023/01/16 01:39:24;;;;;;;;;;;21.10;60.80;;;;;;1576685;75;1065;-73
2023/01/16 01:41:26;;;;;;;;;;;21.10;60.90;;;;;;1563995;75;739;-73
2023/01/16 01:43:47;;;;;;;;;;;21.00;60.80;;;;;;1576369;75;745;-73
2023/01/16 01:45:52;;;;;;;;;;;21.10;60.90;;;;;;1570118;75;797;-73
2023/01/16 01:47:55;;;;;;;;;;;21.10;60.80;;;;;;1566147;75;1936;-74
2023/01/16 01:49:57;;;;;;;;;;;21.10;60.70;;;;;;1575770;75;781;-73
2023/01/16 01:52:00;;;;;;;;;;;21.10;60.60;;;;;;1574697;75;809;-73
2023/01/16 01:54:03;;;;;;;;;;;21.10;60.70;;;;;;1569426;75;785;-75
2023/01/16 01:56:09;;;;;;;;;;;21.20;60.50;;;;;;1566468;75;1575;-73
2023/01/16 01:58:15;;;;;;;;;;;21.20;60.50;;;;;;1571577;75;1868;-73
2023/01/16 02:00:18;;;;;;;;;;;21.20;60.50;;;;;;1552455;74;1607;-74
2023/01/16 02:02:21;;;;;;;;;;;21.10;60.60;;;;;;1560821;75;707;-72
2023/01/16 02:04:24;;;;;;;;;;;21.00;60.60;;;;;;1564320;75;724;-73
2023/01/16 02:06:27;;;;;;;;;;;21.20;60.70;;;;;;1566666;75;1935;-72
2023/01/16 02:08:30;;;;;;;;;;;21.10;60.70;;;;;;1565294;75;1158;-72
2023/01/16 02:10:33;;;;;;;;;;;21.10;60.50;;;;;;1570961;75;707;-70
2023/01/16 02:12:35;;;;;;;;;;;21.20;60.50;;;;;;1573428;75;814;-73
2023/01/16 02:14:38;;;;;;;;;;;21.30;60.50;;;;;;1576168;75;728;-74
2023/01/16 02:19:15;;;;;;;;;;;21.10;60.30;;;;;;1567489;75;1609;-73
2023/01/16 02:21:24;;;;;;;;;;;21.10;60.40;;;;;;1568072;75;678;-74
2023/01/16 02:23:31;;;;;;;;;;;21.30;60.40;;;;;;1570893;75;1587;-73
2023/01/16 02:25:34;;;;;;;;;;;21.20;60.30;;;;;;1571861;75;1751;-73
2023/01/16 02:27:55;;;;;;;;;;;21.10;60.30;;;;;;1569265;75;1926;-74
2023/01/16 02:30:10;;;;;;;;;;;21.10;60.40;;;;;;1556429;75;727;-74
2023/01/16 02:32:26;;;;;;;;;;;21.20;60.60;;;;;;1575341;75;773;-73
2023/01/16 02:34:46;;;;;;;;;;;21.20;60.50;;;;;;1568995;75;763;-73
2023/01/16 02:36:52;;;;;;;;;;;21.20;60.50;;;;;;1576090;75;733;-71
2023/01/16 02:38:55;;;;;;;;;;;21.20;60.60;;;;;;1563781;75;1143;-71
2023/01/16 02:41:02;;;;;;;;;;;21.20;60.70;;;;;;1575607;75;728;-73
2023/01/16 02:43:08;;;;;;;;;;;21.10;60.80;;;;;;1574313;75;716;-73
2023/01/16 02:45:12;;;;;;;;;;;21.10;60.90;;;;;;1566297;75;689;-72
2023/01/16 02:47:18;;;;;;;;;;;21.10;61.00;;;;;;1564992;75;1942;-72
2023/01/16 02:49:21;;;;;;;;;;;21.00;61.00;;;;;;1570817;74;1915;-72
2023/01/16 02:51:27;;;;;;;;;;;21.00;61.00;;;;;;1571532;75;775;-72
2023/01/16 02:53:30;;;;;;;;;;;21.00;60.90;;;;;;1567604;75;731;-72
2023/01/16 02:55:35;;;;;;;;;;;21.00;61.00;;;;;;1563579;75;789;-72
2023/01/16 02:57:39;;;;;;;;;;;21.00;61.00;;;;;;1564613;75;722;-72
2023/01/16 02:59:41;;;;;;;;;;;21.00;60.80;;;;;;1573578;75;1132;-72
2023/01/16 03:01:44;;;;;;;;;;;21.10;60.80;;;;;;1561115;75;768;-72
2023/01/16 03:03:57;;;;;;;;;;;21.10;60.80;;;;;;1576114;75;844;-72
2023/01/16 03:06:00;;;;;;;;;;;21.10;60.70;;;;;;1563786;75;785;-72
2023/01/16 03:08:22;;;;;;;;;;;21.10;60.60;;;;;;1574199;75;1936;-73
2023/01/16 03:10:34;;;;;;;;;;;21.20;60.60;;;;;;1562352;75;1000;-74
2023/01/16 03:12:47;;;;;;;;;;;21.20;60.60;;;;;;1531745;77;711;-71
2023/01/16 03:14:53;;;;;;;;;;;21.20;60.70;;;;;;1540424;76;1937;-71
2023/01/16 03:16:56;;;;;;;;;;;21.20;60.70;;;;;;1578416;74;781;-72
2023/01/16 03:19:06;;;;;;;;;;;21.20;60.60;;;;;;1556300;76;1813;-72
2023/01/16 03:21:15;;;;;;;;;;;21.30;60.70;;;;;;1582942;75;786;-72
2023/01/16 03:23:21;;;;;;;;;;;21.30;60.60;;;;;;1582030;75;1961;-71
2023/01/16 03:25:28;;;;;;;;;;;21.20;60.60;;;;;;1573854;75;782;-71
2023/01/16 03:27:37;;;;;;;;;;;21.20;60.70;;;;;;1542060;76;1948;-71
2023/01/16 03:29:41;;;;;;;;;;;21.10;60.80;;;;;;1582069;75;1876;-72
2023/01/16 03:31:44;;;;;;;;;;;21.10;61.00;;;;;;1585090;75;727;-71
2023/01/16 03:33:48;;;;;;;;;;;21.10;61.10;;;;;;1583317;75;2127;-70
2023/01/16 03:35:52;;;;;;;;;;;21.10;61.20;;;;;;1584702;75;637;-71
2023/01/16 03:37:55;;;;;;;;;;;21.10;61.30;;;;;;1572994;75;1147;-71
2023/01/16 03:39:59;;;;;;;;;;;21.10;61.40;;;;;;1582605;75;1911;-71
2023/01/16 03:42:01;;;;;;;;;;;21.10;61.40;;;;;;1582011;74;1884;-72
2023/01/16 03:44:05;;;;;;;;;;;21.10;61.50;;;;;;1576427;75;730;-72
2023/01/16 03:46:08;;;;;;;;;;;21.00;61.50;;;;;;1582189;75;1036;-72
2023/01/16 03:48:24;;;;;;;;;;;21.10;61.80;;;;;;1584748;75;1905;-71
2023/01/16 03:50:26;;;;;;;;;;;21.00;61.70;;;;;;1581622;75;807;-71
2023/01/16 03:52:29;;;;;;;;;;;21.10;61.90;;;;;;1571384;75;678;-72
2023/01/16 03:54:39;;;;;;;;;;;21.10;61.80;;;;;;1576713;75;1907;-72
2023/01/16 03:56:48;;;;;;;;;;;21.10;61.80;;;;;;1575990;75;1788;-70
2023/01/16 03:58:50;;;;;;;;;;;21.10;61.80;;;;;;1576944;75;1179;-72
2023/01/16 04:00:54;;;;;;;;;;;21.10;61.80;;;;;;1584763;75;864;-71
2023/01/16 04:02:57;;;;;;;;;;;21.20;61.80;;;;;;1585140;75;1910;-72
2023/01/16 04:05:13;;;;;;;;;;;21.10;61.70;;;;;;1566596;75;1835;-71
2023/01/16 04:07:21;;;;;;;;;;;21.10;61.70;;;;;;1564526;75;1927;-71
2023/01/16 04:09:28;;;;;;;;;;;21.10;61.60;;;;;;1575204;75;1127;-72
2023/01/16 04:11:30;;;;;;;;;;;21.20;61.60;;;;;;1575937;75;788;-73
2023/01/16 04:13:33;;;;;;;;;;;21.20;61.60;;;;;;1570266;75;947;-70
2023/01/16 04:15:36;;;;;;;;;;;21.20;61.90;;;;;;1574811;75;1806;-71
2023/01/16 04:17:38;;;;;;;;;;;21.20;62.10;;;;;;1567858;75;817;-68
2023/01/16 04:19:40;;;;;;;;;;;21.30;61.80;;;;;;1571682;75;1584;-74
2023/01/16 04:21:43;;;;;;;;;;;21.30;61.70;;;;;;1570218;75;731;-75
2023/01/16 04:23:45;;;;;;;;;;;21.30;61.70;;;;;;1567167;75;1026;-75
2023/01/16 04:25:47;;;;;;;;;;;21.30;61.60;;;;;;1566775;75;809;-75
2023/01/16 04:27:49;;;;;;;;;;;21.30;61.40;;;;;;1564430;75;1934;-75
2023/01/16 04:29:51;;;;;;;;;;;21.30;61.40;;;;;;1576545;75;794;-75
2023/01/16 04:31:53;;;;;;;;;;;21.30;61.30;;;;;;1576072;75;783;-73
2023/01/16 04:33:54;;;;;;;;;;;21.20;61.20;;;;;;1563146;75;705;-74
2023/01/16 04:35:56;;;;;;;;;;;21.30;61.20;;;;;;1570467;75;769;-74
2023/01/16 04:37:58;;;;;;;;;;;21.30;61.30;;;;;;1575281;75;1132;-74
2023/01/16 04:40:00;;;;;;;;;;;21.30;61.20;;;;;;1571334;75;762;-74
2023/01/16 04:42:02;;;;;;;;;;;21.40;61.10;;;;;;1578003;75;699;-74
2023/01/16 04:44:06;;;;;;;;;;;21.30;61.20;;;;;;1563755;75;754;-73
2023/01/16 04:46:08;;;;;;;;;;;21.30;61.00;;;;;;1567314;74;1038;-74
2023/01/16 04:48:10;;;;;;;;;;;21.30;61.20;;;;;;1570614;75;1924;-73
2023/01/16 04:50:11;;;;;;;;;;;21.30;61.20;;;;;;1576935;75;766;-75
2023/01/16 04:52:13;;;;;;;;;;;21.30;61.10;;;;;;1574035;75;807;-76
2023/01/16 04:54:16;;;;;;;;;;;21.30;61.00;;;;;;1572951;75;733;-72
2023/01/16 04:56:17;;;;;;;;;;;21.30;61.10;;;;;;1574700;75;795;-73
2023/01/16 04:58:19;;;;;;;;;;;21.40;61.00;;;;;;1573434;75;1227;-74
2023/01/16 05:00:21;;;;;;;;;;;21.30;61.20;;;;;;1567948;75;768;-74
2023/01/16 05:02:23;;;;;;;;;;;21.30;61.20;;;;;;1557390;75;721;-75
2023/01/16 05:04:25;;;;;;;;;;;21.20;61.00;;;;;;1568599;75;705;-75
2023/01/16 05:06:27;;;;;;;;;;;21.30;61.20;;;;;;1559929;75;677;-77
2023/01/16 05:08:30;;;;;;;;;;;21.30;61.30;;;;;;1570021;75;1932;-75
2023/01/16 05:10:32;;;;;;;;;;;21.30;61.50;;;;;;1572463;75;620;-75
2023/01/16 05:12:33;;;;;;;;;;;21.30;61.40;;;;;;1572292;75;702;-76
2023/01/16 05:14:35;;;;;;;;;;;21.30;61.40;;;;;;1572116;75;631;-74
2023/01/16 05:16:38;;;;;;;;;;;21.40;61.40;;;;;;1573633;75;1562;-74
2023/01/16 05:18:39;;;;;;;;;;;21.40;61.40;;;;;;1576528;74;1139;-77
2023/01/16 05:20:41;;;;;;;;;;;21.40;61.30;;;;;;1560548;75;777;-75
2023/01/16 05:22:43;;;;;;;;;;;21.40;61.20;;;;;;1576519;75;726;-75
2023/01/16 05:24:45;;;;;;;;;;;21.50;61.40;;;;;;1574243;75;712;-75
2023/01/16 05:26:47;;;;;;;;;;;21.50;61.30;;;;;;1568775;75;768;-74
2023/01/16 05:28:49;;;;;;;;;;;21.50;61.20;;;;;;1573834;74;1920;-75
2023/01/16 05:30:51;;;;;;;;;;;21.50;61.20;;;;;;1574356;75;810;-76
2023/01/16 05:32:53;;;;;;;;;;;21.50;61.00;;;;;;1574077;75;761;-73
2023/01/16 05:34:54;;;;;;;;;;;21.50;61.00;;;;;;1562916;75;743;-73
2023/01/16 05:36:56;;;;;;;;;;;21.50;60.90;;;;;;1570789;75;770;-73
2023/01/16 05:38:58;;;;;;;;;;;21.50;60.90;;;;;;1574816;75;1115;-72
2023/01/16 05:41:00;;;;;;;;;;;21.50;60.90;;;;;;1576569;75;771;-73
2023/01/16 05:43:02;;;;;;;;;;;21.50;61.10;;;;;;1572028;75;771;-72
2023/01/16 05:45:04;;;;;;;;;;;21.50;61.00;;;;;;1565591;75;781;-75
2023/01/16 05:47:06;;;;;;;;;;;21.50;61.20;;;;;;1570398;75;750;-75
2023/01/16 05:49:08;;;;;;;;;;;21.50;61.30;;;;;;1551971;73;2106;-69
2023/01/16 05:51:11;;;;;;;;;;;21.50;61.30;;;;;;1499876;77;715;-69
2023/01/16 05:53:13;;;;;;;;;;;21.40;61.10;;;;;;1512629;77;731;-69
2023/01/16 05:55:15;;;;;;;;;;;21.50;61.30;;;;;;1506297;77;1065;-70
2023/01/16 05:57:17;;;;;;;;;;;21.50;61.20;;;;;;1497670;77;740;-69
2023/01/16 05:59:18;;;;;;;;;;;21.50;61.20;;;;;;1499750;77;1211;-68
2023/01/16 06:01:20;;;;;;;;;;;21.50;61.20;;;;;;1499567;79;702;-68
2023/01/16 06:03:22;;;;;;;;;;;21.50;61.10;;;;;;1507132;78;711;-67
2023/01/16 06:05:24;;;;;;;;;;;21.50;61.30;;;;;;1497204;78;765;-68
2023/01/16 06:07:26;;;;;;;;;;;21.60;61.20;;;;;;1499335;78;695;-67
2023/01/16 06:09:28;;;;;;;;;;;21.60;60.90;;;;;;1500679;77;1941;-68
2023/01/16 06:11:30;;;;;;;;;;;21.60;60.70;;;;;;1507117;78;753;-70
2023/01/16 06:13:31;;;;;;;;;;;21.60;60.50;;;;;;1507092;77;1549;-67
2023/01/16 06:15:33;;;;;;;;;;;21.70;60.40;;;;;;1494168;78;734;-65
2023/01/16 06:17:35;;;;;;;;;;;21.70;60.40;;;;;;1488990;78;738;-69
2023/01/16 06:19:37;;;;;;;;;;;21.80;60.30;;;;;;1498495;78;1117;-69
2023/01/16 06:21:39;;;;;;;;;;;21.90;60.20;;;;;;1502087;78;724;-68
2023/01/16 06:23:41;;;;;;;;;;;22.00;60.10;;;;;;1500421;78;600;-67
2023/01/16 06:25:43;;;;;;;;;;;22.00;59.80;;;;;;1503344;78;803;-70
2023/01/16 06:27:51;;;;;;;;;;;22.00;59.70;;;;;;1503165;77;724;-73
2023/01/16 06:29:53;;;;;;;;;;;22.10;59.70;;;;;;1502323;77;1124;-70
2023/01/16 06:31:55;;;;;;;;;;;22.10;59.50;;;;;;1499824;78;720;-74
2023/01/16 06:33:57;;;;;;;;;;;22.00;59.40;;;;;;1505862;79;683;-68
2023/01/16 06:35:59;;;;;;;;;;;21.90;59.60;;;;;;1502088;78;706;-68
2023/01/16 06:38:01;;;;;;;;;;;22.00;59.60;;;;;;1499545;77;727;-67
2023/01/16 06:40:03;;;;;;;;;;;21.90;59.30;;;;;;1505928;77;1057;-69
2023/01/16 06:42:05;;;;;;;;;;;21.90;58.70;;;;;;1502958;78;774;-69
2023/01/16 06:44:06;;;;;;;;;;;21.80;57.30;;;;;;1504447;78;704;-69
2023/01/16 06:46:08;;;;;;;;;;;21.80;57.20;;;;;;1506251;78;721;-68
2023/01/16 06:48:10;;;;;;;;;;;21.90;57.20;;;;;;1504719;77;1937;-69
2023/01/16 06:50:12;;;;;;;;;;;21.80;56.60;;;;;;1502956;78;806;-72
2023/01/16 06:52:14;;;;;;;;;;;21.70;56.10;;;;;;1500116;78;638;-68
2023/01/16 06:54:16;;;;;;;;;;;21.70;56.20;;;;;;1506149;78;663;-68
2023/01/16 06:56:18;;;;;;;;;;;21.70;56.40;;;;;;1508723;77;688;-69
2023/01/16 06:58:20;;;;;;;;;;;21.70;56.30;;;;;;1501422;78;1217;-68
2023/01/16 07:00:22;;;;;;;;;;;21.70;56.30;;;;;;1494708;78;736;-70
2023/01/16 07:02:24;;;;;;;;;;;21.70;56.40;;;;;;1498858;78;751;-67
2023/01/16 07:04:26;;;;;;;;;;;21.70;56.20;;;;;;1503405;78;751;-71
2023/01/16 07:06:28;;;;;;;;;;;21.70;56.30;;;;;;1503572;78;814;-69
2023/01/16 07:08:30;;;;;;;;;;;21.70;56.10;;;;;;1507067;77;1941;-69
2023/01/16 07:10:32;;;;;;;;;;;21.60;56.00;;;;;;1503899;77;774;-68
2023/01/16 07:12:33;;;;;;;;;;;21.60;56.20;;;;;;1506412;78;731;-66
2023/01/16 07:23:56;;;;;;;;;;;21.50;53.00;;;;;;1504673;77;1667;-67
2023/01/16 07:25:59;;;;;;;;;;;21.50;50.50;;;;;;1499009;78;639;-69
2023/01/16 07:28:01;;;;;;;;;;;21.50;48.90;;;;;;1499740;78;789;-69
2023/01/16 07:30:02;;;;;;;;;;;21.40;47.60;;;;;;1499778;77;1956;-69
2023/01/16 07:32:04;;;;;;;;;;;21.40;46.50;;;;;;1497209;77;645;-69
2023/01/16 07:34:06;;;;;;;;;;;21.40;45.90;;;;;;1499098;77;631;-70
2023/01/16 07:36:08;;;;;;;;;;;21.30;45.20;;;;;;1495676;77;802;-70
2023/01/16 07:38:10;;;;;;;;;;;21.20;44.50;;;;;;1502120;77;1177;-73
2023/01/16 07:40:12;;;;;;;;;;;21.20;44.30;;;;;;1501622;77;816;-67
2023/01/16 07:42:14;;;;;;;;;;;21.10;43.90;;;;;;1501341;78;818;-68
2023/01/16 07:44:16;;;;;;;;;;;21.00;43.60;;;;;;1503946;78;727;-68
2023/01/16 07:46:18;;;;;;;;;;;21.00;43.40;;;;;;1500875;79;882;-66
2023/01/16 07:48:20;;;;;;;;;;;21.00;43.40;;;;;;1503186;77;1935;-67
2023/01/16 07:50:22;;;;;;;;;;;20.90;43.20;;;;;;1503942;78;819;-68
2023/01/16 07:52:24;;;;;;;;;;;20.80;43.20;;;;;;1499061;77;791;-68
2023/01/16 07:54:26;;;;;;;;;;;20.80;43.10;;;;;;1503888;77;667;-68
2023/01/16 07:56:28;;;;;;;;;;;20.80;42.90;;;;;;1507334;78;788;-70
2023/01/16 07:58:30;;;;;;;;;;;20.70;42.80;;;;;;1507086;78;1161;-69
2023/01/16 08:00:33;;;;;;;;;;;20.70;42.80;;;;;;1499335;78;731;-68
2023/01/16 08:02:35;;;;;;;;;;;20.60;42.60;;;;;;1506972;78;716;-69
2023/01/16 08:04:37;;;;;;;;;;;20.60;42.20;;;;;;1500432;78;1463;-70
2023/01/16 08:06:44;;;;;;;;;;;20.50;42.20;;;;;;1507435;78;742;-67
2023/01/16 08:08:42;;;;;;;;;;;20.50;42.10;;;;;;1493457;77;1943;-67
2023/01/16 08:10:44;;;;;;;;;;;20.50;41.70;;;;;;1493259;79;740;-66
2023/01/16 08:12:46;;;;;;;;;;;20.40;41.50;;;;;;1495808;78;768;-68
2023/01/16 08:14:48;;;;;;;;;;;20.50;41.30;;;;;;1494534;77;676;-68
2023/01/16 08:16:49;;;;;;;;;;;20.40;41.00;;;;;;1506998;78;730;-71
2023/01/16 08:18:51;;;;;;;;;;;20.40;41.10;;;;;;1506739;78;1182;-68
2023/01/16 08:20:53;;;;;;;;;;;20.40;44.20;;;;;;1491878;77;722;-67
2023/01/16 08:22:56;;;;;;;;;;;20.40;43.80;;;;;;1514572;77;773;-68
2023/01/16 08:24:58;;;;;;;;;;;20.40;43.10;;;;;;1507432;78;739;-69
2023/01/16 08:27:00;;;;;;;;;;;20.30;42.80;;;;;;1506745;78;722;-67
2023/01/16 08:29:02;;;;;;;;;;;20.30;46.10;;;;;;1496625;79;1936;-68
2023/01/16 08:31:07;;;;;;;;;;;20.40;47.90;;;;;;1498973;78;763;-67
2023/01/16 08:33:08;;;;;;;;;;;20.50;49.20;;;;;;1500976;78;1624;-67
2023/01/16 08:35:10;;;;;;;;;;;20.70;50.20;;;;;;1502108;79;717;-69
2023/01/16 08:37:12;;;;;;;;;;;20.70;51.60;;;;;;1500766;77;703;-67
2023/01/16 08:39:14;;;;;;;;;;;20.70;52.70;;;;;;1496213;78;1159;-67
2023/01/16 08:52:57;;;;;;;;;;;20.80;53.00;;;;;;1503153;77;1652;-68
2023/01/16 08:54:59;;;;;;;;;;;20.80;53.20;;;;;;1500775;78;793;-68
2023/01/16 08:57:01;;;;;;;;;;;20.80;53.10;;;;;;1506784;77;788;-73
2023/01/16 08:59:02;;;;;;;;;;;20.80;53.20;;;;;;1507095;77;1194;-66
2023/01/16 09:01:04;;;;;;;;;;;20.80;53.30;;;;;;1499750;78;1605;-67
2023/01/16 09:03:06;;;;;;;;;;;20.90;53.70;;;;;;1496263;79;706;-67
2023/01/16 09:05:09;;;;;;;;;;;20.80;53.70;;;;;;1499124;77;808;-67
2023/01/16 09:07:11;;;;;;;;;;;20.80;53.90;;;;;;1498173;79;723;-66
2023/01/16 09:09:12;;;;;;;;;;;20.90;54.10;;;;;;1499016;79;1949;-65
2023/01/16 09:13:49;;;;;;;;;;;20.80;54.10;;;;;;1497971;78;1608;-68
2023/01/16 09:15:51;;;;;;;;;;;20.90;54.30;;;;;;1507782;77;666;-69
2023/01/16 09:17:53;;;;;;;;;;;21.00;54.30;;;;;;1501294;78;679;-68
2023/01/16 09:19:54;;;;;;;;;;;20.90;54.10;;;;;;1507522;77;1134;-69
2023/01/16 09:21:56;;;;;;;;;;;20.90;54.00;;;;;;1500996;78;783;-68
2023/01/16 09:23:58;;;;;;;;;;;20.90;53.90;;;;;;1506802;79;780;-67
2023/01/16 09:26:00;;;;;;;;;;;21.00;53.80;;;;;;1506160;78;709;-68
2023/01/16 09:28:03;;;;;;;;;;;21.00;53.70;;;;;;1509256;77;719;-66
2023/01/16 09:30:05;;;;;;;;;;;21.00;53.60;;;;;;1500168;77;1932;-69
2023/01/16 09:32:08;;;;;;;;;;;21.00;53.50;;;;;;1505167;78;772;-70
2023/01/16 09:34:10;;;;;;;;;;;21.00;53.40;;;;;;1508842;77;733;-72
2023/01/16 09:36:12;;;;;;;;;;;21.10;53.30;;;;;;1507258;78;814;-70
2023/01/16 09:38:13;;;;;;;;;;;21.00;53.10;;;;;;1505731;77;1145;-70
2023/01/16 09:40:17;;;;;;;;;;;21.00;53.00;;;;;;1502724;78;741;-68
2023/01/16 09:44:49;;;;;;;;;;;21.00;53.10;;;;;;1501302;78;722;-68
2023/01/16 09:46:51;;;;;;;;;;;21.10;53.20;;;;;;1501454;77;720;-68
2023/01/16 09:48:55;;;;;;;;;;;21.10;53.10;;;;;;1507341;77;1079;-68
2023/01/16 09:50:58;;;;;;;;;;;21.10;52.90;;;;;;1505334;78;1914;-67
2023/01/16 09:59:52;;;;;;;;;;;21.20;52.80;;;;;;1497897;79;1630;-68
2023/01/16 10:01:55;;;;;;;;;;;21.20;52.80;;;;;;1505425;77;792;-69
2023/01/16 10:03:58;;;;;;;;;;;21.30;52.90;;;;;;1502483;78;926;-68
2023/01/16 10:06:14;;;;;;;;;;;21.30;52.80;;;;;;1505623;79;773;-69
2023/01/16 10:08:18;;;;;;;;;;;21.30;52.70;;;;;;1496818;78;1158;-68
2023/01/16 10:10:27;;;;;;;;;;;21.30;52.60;;;;;;1501531;78;1915;-69
2023/01/16 10:12:34;;;;;;;;;;;21.30;52.60;;;;;;1498661;79;915;-70
2023/01/16 10:14:44;;;;;;;;;;;21.30;52.60;;;;;;1506470;78;1028;-69
2023/01/16 10:16:51;;;;;;;;;;;21.30;52.70;;;;;;1506504;77;1004;-68
2023/01/16 10:19:06;;;;;;;;;;;21.30;52.60;;;;;;1506522;77;1167;-69
2023/01/16 10:21:22;;;;;;;;;;;21.20;52.60;;;;;;1497725;79;1853;-68
2023/01/16 10:23:41;;;;;;;;;;;21.30;52.70;;;;;;1503276;77;682;-69
2023/01/16 10:26:00;;;;;;;;;;;21.20;52.60;;;;;;1507179;79;820;-73
2023/01/16 10:28:07;;;;;;;;;;;21.10;52.60;;;;;;1504928;78;742;-69
2023/01/16 10:30:13;;;;;;;;;;;21.10;52.70;;;;;;1505234;77;1945;-68
2023/01/16 10:32:17;;;;;;;;;;;21.10;52.70;;;;;;1495446;78;732;-68
2023/01/16 10:34:36;;;;;;;;;;;21.10;52.70;;;;;;1502340;79;1955;-69
2023/01/16 10:36:42;;;;;;;;;;;21.10;52.80;;;;;;1504967;79;1075;-68
2023/01/16 10:38:51;;;;;;;;;;;21.10;52.80;;;;;;1502872;77;1157;-68
2023/01/16 10:40:54;;;;;;;;;;;21.00;52.90;;;;;;1502806;78;1863;-67
2023/01/16 10:49:58;;;;;;;;;;;21.20;53.10;;;;;;1507242;77;1929;-69
2023/01/16 10:52:00;;;;;;;;;;;21.00;53.00;;;;;;1505421;77;843;-68
2023/01/16 10:54:02;;;;;;;;;;;21.10;53.10;;;;;;1502103;78;1493;-69
2023/01/16 10:56:04;;;;;;;;;;;21.10;53.20;;;;;;1505492;78;774;-71
2023/01/16 10:58:07;;;;;;;;;;;21.10;53.20;;;;;;1506095;78;798;-68
2023/01/16 11:00:11;;;;;;;;;;;21.10;53.20;;;;;;1492595;77;1201;-68
2023/01/16 11:02:22;;;;;;;;;;;21.10;53.20;;;;;;1502146;78;1111;-65
2023/01/16 11:04:23;;;;;;;;;;;21.00;53.10;;;;;;1506687;79;1605;-67
2023/01/16 11:06:26;;;;;;;;;;;21.10;53.20;;;;;;1483664;80;1171;-67
2023/01/16 11:08:28;;;;;;;;;;;21.10;53.20;;;;;;1500369;77;1112;-66
2023/01/16 11:10:30;;;;;;;;;;;21.10;53.20;;;;;;1504655;78;1933;-66
2023/01/16 11:19:43;;;;;;;;;;;21.10;53.20;;;;;;1502057;77;1718;-66
2023/01/16 11:21:45;;;;;;;;;;;21.00;53.10;;;;;;1503888;79;720;-67
2023/01/16 11:23:48;;;;;;;;;;;21.00;52.80;;;;;;1483826;80;585;-66
2023/01/16 11:25:50;;;;;;;;;;;21.10;52.70;;;;;;1505523;78;802;-65
2023/01/16 11:27:52;;;;;;;;;;;21.20;52.50;;;;;;1509147;77;825;-67
2023/01/16 11:29:54;;;;;;;;;;;21.20;52.20;;;;;;1493190;78;1964;-66
2023/01/16 11:31:57;;;;;;;;;;;21.20;52.30;;;;;;1499695;77;744;-68
2023/01/16 11:34:01;;;;;;;;;;;21.10;52.80;;;;;;1505619;78;686;-68
2023/01/16 11:36:03;;;;;;;;;;;21.10;52.80;;;;;;1505008;78;1147;-68
2023/01/16 11:38:05;;;;;;;;;;;21.10;52.70;;;;;;1498814;77;673;-68
2023/01/16 11:40:07;;;;;;;;;;;21.10;52.70;;;;;;1497664;79;1160;-68
2023/01/16 11:46:54;;;;;;;;;;;21.20;52.30;;;;;;1497234;79;1629;-72
2023/01/16 11:48:58;;;;;;;;;;;21.10;52.30;;;;;;1496270;74;2069;-71
2023/01/16 11:51:00;;;;;;;;;;;21.10;52.50;;;;;;1563442;74;1943;-69
2023/01/16 11:53:02;;;;;;;;;;;21.10;52.30;;;;;;1564360;74;764;-71
2023/01/16 11:55:04;;;;;;;;;;;21.10;52.40;;;;;;1566107;74;711;-71
2023/01/16 11:57:19;;;;;;;;;;;21.00;52.30;;;;;;1569018;74;935;-70
2023/01/16 11:59:32;;;;;;;;;;;20.90;52.40;;;;;;1552377;75;1931;-71
2023/01/16 12:02:15;;;;;;;;;;;20.90;52.30;;;;;;1569971;74;1868;-71
2023/01/16 12:03:45;;;;;;;;;;;20.90;52.40;;;;;;1563679;74;1688;-70
2023/01/16 12:06:04;;;;;;;;;;;20.90;52.20;;;;;;1533598;76;946;-70
2023/01/16 12:08:07;;;;;;;;;;;20.80;52.10;;;;;;1533674;77;740;-70
2023/01/16 12:10:13;;;;;;;;;;;20.90;52.40;;;;;;1529853;76;1943;-70
2023/01/16 12:14:46;;;;;;;;;;;20.80;51.90;;;;;;1542429;76;1702;-70
2023/01/16 12:16:49;;;;;;;;;;;20.80;51.90;;;;;;1553081;75;743;-70
2023/01/16 12:19:09;;;;;;;;;;;20.80;51.60;;;;;;1554018;75;1150;-71
2023/01/16 12:21:13;;;;;;;;;;;20.80;51.80;;;;;;1544766;75;787;-70
2023/01/16 12:23:19;;;;;;;;;;;20.80;51.80;;;;;;1532540;75;1659;-71
2023/01/16 12:25:23;;;;;;;;;;;20.90;52.10;;;;;;1539298;76;1956;-70
2023/01/16 12:27:44;;;;;;;;;;;20.90;51.70;;;;;;1541054;75;973;-70
2023/01/16 12:30:06;;;;;;;;;;;20.90;51.40;;;;;;1543987;75;1936;-71
2023/01/16 12:32:25;;;;;;;;;;;20.90;50.60;;;;;;1539886;75;695;-70
2023/01/16 12:34:28;;;;;;;;;;;20.90;50.00;;;;;;1547305;75;1962;-70
2023/01/16 12:36:32;;;;;;;;;;;20.80;49.10;;;;;;1543355;75;1915;-71
2023/01/16 12:38:38;;;;;;;;;;;20.80;48.60;;;;;;1542005;75;1130;-69
2023/01/16 12:43:17;;;;;;;;;;;20.70;48.10;;;;;;1547802;75;768;-70
2023/01/16 12:43:18;;;;;;;;;;;20.70;48.30;;;;;;1544936;75;1698;-70
2023/01/16 12:45:24;;;;;;;;;;;20.70;47.30;;;;;;1538598;75;861;-71
2023/01/16 12:47:43;;;;;;;;;;;20.60;46.40;;;;;;1550221;75;1541;-71
2023/01/16 12:49:56;;;;;;;;;;;20.60;45.80;;;;;;1539435;75;2145;-70
2023/01/16 12:52:09;;;;;;;;;;;20.60;46.30;;;;;;1533618;76;2205;-70
2023/01/16 12:54:18;;;;;;;;;;;20.50;46.10;;;;;;1527405;76;832;-70
2023/01/16 12:56:22;;;;;;;;;;;20.60;45.20;;;;;;1528986;76;2001;-71
2023/01/16 12:58:25;;;;;;;;;;;20.50;45.20;;;;;;1524290;76;1928;-71
2023/01/16 13:00:28;;;;;;;;;;;20.40;45.40;;;;;;1530348;76;1157;-71
2023/01/16 13:02:40;;;;;;;;;;;20.40;45.80;;;;;;1527973;76;1745;-70
2023/01/16 13:04:43;;;;;;;;;;;20.40;46.40;;;;;;1536910;76;752;-73
2023/01/16 13:06:49;;;;;;;;;;;20.40;46.60;;;;;;1524365;76;761;-69
2023/01/16 13:09:00;;;;;;;;;;;20.50;46.90;;;;;;1537272;75;1161;-70
2023/01/16 13:13:22;;;;;;;;;;;20.60;46.80;;;;;;1537012;76;1664;-70
2023/01/16 13:15:26;;;;;;;;;;;20.60;46.90;;;;;;1531350;76;696;-70
2023/01/16 13:17:29;;;;;;;;;;;20.60;47.00;;;;;;1538659;76;1799;-70
2023/01/16 13:19:31;;;;;;;;;;;20.60;47.20;;;;;;1557477;75;1880;-69